Time;durP1;ratioP1;P1;durP2;ratioP2;P2;SDS_P1;SDS_P2;PMS_P1;PMS_P2;Temp;Humidity;BMP_temperature;BMP_pressure;BME280_temperature;BME280_humidity;BME280_pressure;Samples;Min_cycle;Max_cycle;Signal;HPM_P1;HPM_P2
2022/07/25 00:01:07;;;;;;;7.57;5.78;;;;;;;22.80;59.63;100968.94;5091212;28;20035;-53
2022/07/25 00:03:33;;;;;;;7.22;6.00;;;;;;;22.79;58.58;100963.72;5091811;28;20016;-52
2022/07/25 00:05:58;;;;;;;11.48;6.18;;;;;;;22.78;59.01;100964.75;5087331;28;20020;-53
2022/07/25 00:08:23;;;;;;;10.13;5.53;;;;;;;22.73;58.98;100955.34;5090120;28;20028;-53
2022/07/25 00:10:48;;;;;;;8.35;6.28;;;;;;;22.75;59.13;100955.16;5091165;28;20286;-53
2022/07/25 00:13:14;;;;;;;7.43;5.97;;;;;;;22.69;59.44;100948.63;5091417;28;20024;-53
2022/07/25 00:15:39;;;;;;;10.40;6.45;;;;;;;22.63;59.14;100944.03;5082991;28;20076;-53
2022/07/25 00:18:04;;;;;;;8.50;6.50;;;;;;;22.61;59.62;100939.81;5093440;28;20019;-52
2022/07/25 00:20:29;;;;;;;6.88;6.15;;;;;;;22.59;59.30;100939.19;5091302;28;20344;-53
2022/07/25 00:22:55;;;;;;;10.77;7.17;;;;;;;22.57;59.31;100938.56;5089838;28;20024;-51
2022/07/25 00:25:20;;;;;;;8.17;6.03;;;;;;;22.53;59.57;100940.78;5084830;28;20805;-55
2022/07/25 00:27:45;;;;;;;6.28;5.68;;;;;;;22.50;59.53;100939.31;5091140;28;20282;-55
2022/07/25 00:30:11;;;;;;;6.67;5.93;;;;;;;22.47;60.25;100933.47;5091448;28;20141;-54
2022/07/25 00:32:36;;;;;;;7.38;6.22;;;;;;;22.44;59.85;100934.66;5087138;28;20776;-53
2022/07/25 00:35:03;;;;;;;7.80;6.05;;;;;;;22.40;60.36;100927.13;5083051;28;20027;-52
2022/07/25 00:37:28;;;;;;;7.80;6.05;;;;;;;22.38;59.95;100930.03;5090802;28;20036;-54
2022/07/25 00:39:54;;;;;;;6.40;5.78;;;;;;;22.35;60.21;100919.63;5082064;28;20374;-52
2022/07/25 00:42:20;;;;;;;7.03;5.60;;;;;;;22.36;60.18;100923.97;5090913;28;20052;-53
2022/07/25 00:44:45;;;;;;;6.93;5.80;;;;;;;22.31;60.86;100915.59;5091212;28;20274;-54
2022/07/25 00:47:11;;;;;;;8.27;6.43;;;;;;;22.27;60.67;100912.41;5089910;28;20024;-53
2022/07/25 00:49:36;;;;;;;6.70;5.30;;;;;;;22.27;60.40;100906.19;5087785;28;20289;-54
2022/07/25 00:52:01;;;;;;;9.40;6.10;;;;;;;22.21;60.75;100907.78;5095101;22;20312;-47
2022/07/25 00:54:27;;;;;;;7.30;6.38;;;;;;;22.21;60.41;100901.53;5047969;28;20288;-45
2022/07/25 00:56:53;;;;;;;6.35;5.75;;;;;;;22.16;60.39;100896.69;5043208;28;20087;-45
2022/07/25 00:59:18;;;;;;;8.10;6.10;;;;;;;22.16;60.20;100911.03;5074665;28;20086;-49
2022/07/25 01:01:46;;;;;;;9.30;5.88;;;;;;;22.11;60.03;100891.84;5051303;28;20082;-47
2022/07/25 01:04:12;;;;;;;6.97;5.72;;;;;;;22.09;60.12;100898.50;5063164;28;20568;-48
2022/07/25 01:06:37;;;;;;;6.72;5.88;;;;;;;22.07;59.72;100895.97;5055672;28;20020;-47
2022/07/25 01:09:03;;;;;;;7.90;5.72;;;;;;;22.04;60.01;100893.66;5036523;28;20072;-48
2022/07/25 01:11:28;;;;;;;7.35;6.35;;;;;;;22.05;60.03;100883.66;5065963;28;20028;-47
2022/07/25 01:13:53;;;;;;;7.88;6.00;;;;;;;21.99;60.44;100883.41;5066039;28;20063;-47
2022/07/25 01:16:19;;;;;;;6.65;5.95;;;;;;;22.00;59.83;100876.16;5047337;28;20113;-47
2022/07/25 01:18:44;;;;;;;8.85;6.10;;;;;;;21.99;60.51;100871.75;5059989;28;20036;-48
2022/07/25 01:21:09;;;;;;;8.75;5.43;;;;;;;21.97;59.90;100873.84;5055836;28;20326;-47
2022/07/25 01:23:35;;;;;;;6.72;5.80;;;;;;;21.96;59.47;100870.28;5060423;28;20044;-46
2022/07/25 01:26:00;;;;;;;7.00;5.65;;;;;;;21.92;59.86;100868.16;5060242;28;20034;-49
2022/07/25 01:28:26;;;;;;;8.18;5.65;;;;;;;21.91;59.88;100870.00;5050911;28;20033;-47
2022/07/25 01:30:52;;;;;;;6.13;5.53;;;;;;;21.87;60.15;100862.50;5077850;28;20028;-48
2022/07/25 01:33:18;;;;;;;8.67;5.80;;;;;;;21.88;59.83;100864.97;5066245;28;20090;-48
2022/07/25 01:35:45;;;;;;;6.38;5.43;;;;;;;21.84;60.12;100863.69;5065836;28;20267;-48
2022/07/25 01:38:10;;;;;;;6.68;5.65;;;;;;;21.84;59.48;100857.47;5073910;28;20081;-49
2022/07/25 01:40:36;;;;;;;8.38;5.90;;;;;;;21.81;59.91;100859.50;5045145;28;20025;-46
2022/07/25 01:43:01;;;;;;;10.10;5.50;;;;;;;21.83;59.52;100861.19;5058338;28;20071;-46
2022/07/25 01:45:26;;;;;;;7.68;5.95;;;;;;;21.80;59.80;100852.44;5056241;28;20033;-45
2022/07/25 01:47:52;;;;;;;7.93;5.65;;;;;;;21.79;59.90;100849.94;5039955;28;20402;-45
2022/07/25 01:50:17;;;;;;;6.20;5.60;;;;;;;21.79;59.45;100850.75;5057792;28;20382;-46
2022/07/25 01:52:43;;;;;;;8.00;5.78;;;;;;;21.78;59.41;100837.41;5070580;28;20363;-47
2022/07/25 01:55:09;;;;;;;6.13;5.25;;;;;;;21.71;59.95;100837.34;5069486;28;20622;-47
2022/07/25 01:57:34;;;;;;;6.22;5.63;;;;;;;21.74;59.79;100836.97;5067101;28;20027;-46
2022/07/25 02:00:00;;;;;;;6.18;5.50;;;;;;;21.72;59.68;100827.41;5071945;28;20025;-47
2022/07/25 02:02:25;;;;;;;8.50;5.88;;;;;;;21.72;59.74;100822.81;5072346;28;20385;-46
2022/07/25 02:04:51;;;;;;;7.55;6.00;;;;;;;21.73;59.77;100829.06;5065571;28;20470;-48
2022/07/25 02:07:16;;;;;;;6.55;5.80;;;;;;;21.70;59.59;100818.63;5077555;28;20620;-46
2022/07/25 02:09:41;;;;;;;8.43;5.85;;;;;;;21.70;59.53;100824.88;5074628;28;20024;-46
2022/07/25 02:12:07;;;;;;;6.75;5.57;;;;;;;21.69;59.61;100816.97;5074698;28;20025;-46
2022/07/25 02:14:32;;;;;;;6.57;5.65;;;;;;;21.68;60.05;100818.81;5064104;28;20033;-46
2022/07/25 02:16:58;;;;;;;7.80;5.40;;;;;;;21.67;59.80;100816.31;5072625;28;20071;-47
2022/07/25 02:19:23;;;;;;;7.18;5.63;;;;;;;21.66;59.22;100812.75;5076157;28;20119;-45
2022/07/25 02:21:48;;;;;;;9.95;5.82;;;;;;;21.66;59.62;100814.63;5076026;28;20028;-47
2022/07/25 02:24:14;;;;;;;6.22;5.63;;;;;;;21.60;60.69;100811.66;5078142;28;20034;-46
2022/07/25 02:26:39;;;;;;;9.02;6.15;;;;;;;21.60;60.24;100819.78;5077085;28;20020;-46
2022/07/25 02:29:05;;;;;;;5.90;5.32;;;;;;;21.60;59.71;100808.97;5054699;28;20116;-47
2022/07/25 02:31:30;;;;;;;6.90;5.85;;;;;;;21.60;59.38;100808.97;5076427;28;20034;-47
2022/07/25 02:33:55;;;;;;;7.30;5.50;;;;;;;21.57;59.76;100798.53;5077236;28;20027;-45
2022/07/25 02:36:20;;;;;;;6.53;5.40;;;;;;;21.56;59.64;100802.25;5076925;28;20039;-46
2022/07/25 02:38:46;;;;;;;5.93;5.43;;;;;;;21.54;60.00;100801.63;5064554;28;20028;-45
2022/07/25 02:41:11;;;;;;;6.20;5.70;;;;;;;21.53;59.84;100794.56;5073819;28;20299;-45
2022/07/25 02:43:36;;;;;;;5.82;5.32;;;;;;;21.54;59.87;100795.38;5072382;28;20299;-45
2022/07/25 02:46:02;;;;;;;6.25;5.50;;;;;;;21.52;59.23;100790.16;5075420;28;20485;-48
2022/07/25 02:48:27;;;;;;;6.03;5.43;;;;;;;21.51;59.34;100785.78;5075271;28;20030;-46
2022/07/25 02:50:53;;;;;;;6.15;5.55;;;;;;;21.49;59.40;100787.84;5080560;28;20028;-46
2022/07/25 02:53:18;;;;;;;8.10;5.40;;;;;;;21.48;59.30;100782.63;5083966;28;20055;-46
2022/07/25 02:55:43;;;;;;;7.70;5.45;;;;;;;21.43;59.65;100784.03;5082800;28;20390;-46
2022/07/25 02:58:09;;;;;;;11.57;5.77;;;;;;;21.43;59.79;100781.31;5083542;28;20047;-45
2022/07/25 03:00:35;;;;;;;8.20;5.72;;;;;;;21.41;59.98;100783.34;5080320;28;20354;-45
2022/07/25 03:03:00;;;;;;;7.40;5.72;;;;;;;21.41;59.27;100791.47;5079241;28;20016;-46
2022/07/25 03:05:25;;;;;;;6.83;5.67;;;;;;;21.39;60.27;100784.59;5077407;28;20090;-45
2022/07/25 03:07:51;;;;;;;6.95;5.85;;;;;;;21.40;59.37;100780.84;5078200;28;20275;-45
2022/07/25 03:10:16;;;;;;;8.98;5.43;;;;;;;21.37;60.03;100763.16;5082272;28;20027;-45
2022/07/25 03:12:42;;;;;;;7.63;5.68;;;;;;;21.36;59.44;100774.16;5070535;28;20036;-45
2022/07/25 03:15:09;;;;;;;11.32;5.35;;;;;;;21.35;59.40;100765.22;5078196;28;20158;-45
2022/07/25 03:17:34;;;;;;;7.03;5.50;;;;;;;21.32;59.30;100756.66;5078620;28;20203;-45
2022/07/25 03:20:00;;;;;;;6.10;5.50;;;;;;;21.32;59.27;100757.50;5069835;28;20092;-46
2022/07/25 03:22:25;;;;;;;7.57;5.57;;;;;;;21.30;60.01;100759.56;5075680;28;20428;-47
2022/07/25 03:24:52;;;;;;;7.45;5.65;;;;;;;21.28;60.15;100760.75;5069725;28;20287;-45
2022/07/25 03:27:17;;;;;;;7.70;5.28;;;;;;;21.27;59.76;100759.94;5076116;28;20100;-46
2022/07/25 03:29:43;;;;;;;10.52;5.70;;;;;;;21.26;58.98;100759.06;5077104;28;20060;-45
2022/07/25 03:32:08;;;;;;;12.63;5.37;;;;;;;21.25;59.56;100757.41;5067583;28;20028;-45
2022/07/25 03:34:35;;;;;;;7.95;5.68;;;;;;;21.22;59.71;100760.50;5079082;28;20918;-46
2022/07/25 03:37:01;;;;;;;6.10;5.50;;;;;;;21.21;59.78;100761.50;5074918;28;20046;-45
2022/07/25 03:39:27;;;;;;;5.85;5.20;;;;;;;21.21;59.14;100760.69;5070709;28;20029;-45
2022/07/25 03:41:54;;;;;;;7.30;5.93;;;;;;;21.22;59.90;100760.50;5082416;28;20031;-45
2022/07/25 03:44:20;;;;;;;6.82;5.60;;;;;;;21.20;59.25;100759.84;5078009;28;20064;-47
2022/07/25 03:46:46;;;;;;;9.50;5.68;;;;;;;21.18;60.04;100764.63;5085007;28;20028;-45
2022/07/25 03:49:11;;;;;;;8.52;5.50;;;;;;;21.17;60.00;100756.69;5086614;28;20043;-45
2022/07/25 03:51:37;;;;;;;13.63;5.70;;;;;;;21.16;60.07;100763.13;5083397;28;20052;-45
2022/07/25 03:54:04;;;;;;;8.38;6.30;;;;;;;21.15;60.25;100756.03;5085279;28;20322;-45
2022/07/25 03:56:42;;;;;;;6.75;5.90;;;;;;;21.13;59.87;100755.38;5085375;28;20024;-45
2022/07/25 03:59:10;;;;;;;7.57;5.80;;;;;;;21.06;60.74;100747.19;5082447;28;20017;-45
2022/07/25 04:01:35;;;;;;;8.25;5.47;;;;;;;21.06;60.28;100742.63;5086200;28;20286;-45
2022/07/25 04:04:01;;;;;;;8.80;5.90;;;;;;;21.06;61.19;100742.63;5077823;28;20033;-45
2022/07/25 04:06:26;;;;;;;10.95;6.18;;;;;;;21.00;60.90;100735.31;5076839;28;20028;-46
2022/07/25 04:08:53;;;;;;;7.90;5.75;;;;;;;21.01;60.54;100734.25;5074730;28;20102;-46
2022/07/25 04:11:18;;;;;;;9.18;6.32;;;;;;;20.97;61.00;100746.47;5081059;28;20044;-47
2022/07/25 04:13:44;;;;;;;9.00;6.18;;;;;;;20.99;61.41;100738.19;5084633;28;20423;-46
2022/07/25 04:16:10;;;;;;;7.68;6.68;;;;;;;20.96;61.74;100735.88;5083603;28;20024;-45
2022/07/25 04:18:36;;;;;;;8.88;6.45;;;;;;;20.99;61.03;100738.19;5064631;28;20039;-45
2022/07/25 04:21:02;;;;;;;8.00;6.25;;;;;;;20.97;61.69;100735.69;5074261;28;20036;-45
2022/07/25 04:23:27;;;;;;;9.23;6.00;;;;;;;20.93;61.74;100730.84;5077497;28;20107;-46
2022/07/25 04:25:53;;;;;;;7.30;6.25;;;;;;;20.97;62.33;100742.94;5081301;28;20079;-46
2022/07/25 04:28:19;;;;;;;6.43;5.70;;;;;;;20.97;61.65;100730.28;5077181;28;20474;-45
2022/07/25 04:30:44;;;;;;;8.70;6.30;;;;;;;20.97;61.05;100734.84;5080207;28;20029;-45
2022/07/25 04:33:10;;;;;;;9.60;6.03;;;;;;;20.94;61.34;100749.56;5060879;28;20329;-45
2022/07/25 04:35:36;;;;;;;9.68;6.30;;;;;;;20.94;61.46;100746.03;5073267;28;20031;-45
2022/07/25 04:38:01;;;;;;;7.05;6.38;;;;;;;20.93;61.98;100745.16;5068222;28;20404;-45
2022/07/25 04:40:26;;;;;;;7.80;5.83;;;;;;;20.95;61.23;100744.97;5071013;28;20017;-46
2022/07/25 04:42:52;;;;;;;7.65;5.90;;;;;;;20.97;61.40;100743.78;5064500;28;20374;-46
2022/07/25 04:45:17;;;;;;;8.40;6.47;;;;;;;20.98;61.32;100744.59;5067881;28;20433;-46
2022/07/25 04:47:42;;;;;;;6.97;6.13;;;;;;;20.99;61.57;100735.50;5073074;28;20274;-45
2022/07/25 04:50:08;;;;;;;10.52;6.18;;;;;;;20.98;61.50;100726.53;5067617;28;20388;-45
2022/07/25 04:52:33;;;;;;;13.07;6.20;;;;;;;21.01;61.69;100728.03;5079273;28;20094;-45
2022/07/25 04:54:59;;;;;;;6.93;6.23;;;;;;;21.01;61.99;100730.72;5077756;28;20028;-45
2022/07/25 04:57:24;;;;;;;7.07;6.30;;;;;;;20.99;61.53;100730.91;5066726;28;20302;-46
2022/07/25 04:59:49;;;;;;;7.27;6.07;;;;;;;21.06;61.77;100739.09;5075008;28;20275;-46
2022/07/25 05:02:14;;;;;;;8.63;6.13;;;;;;;21.05;62.27;100743.66;5085122;28;20564;-46
2022/07/25 05:04:40;;;;;;;8.73;6.50;;;;;;;21.06;62.32;100741.81;5092349;28;20028;-45
2022/07/25 05:07:05;;;;;;;7.00;6.30;;;;;;;21.09;62.89;100738.72;5067113;28;20305;-45
2022/07/25 05:09:30;;;;;;;7.63;6.33;;;;;;;21.12;62.02;100735.66;5082608;28;20039;-45
2022/07/25 05:11:55;;;;;;;9.77;6.63;;;;;;;21.16;62.15;100736.09;5081761;28;20370;-47
2022/07/25 05:14:21;;;;;;;8.50;6.67;;;;;;;21.19;62.27;100739.25;5082234;28;20294;-45
2022/07/25 05:16:46;;;;;;;7.15;6.43;;;;;;;21.20;62.05;100743.66;5081735;28;20302;-45
2022/07/25 05:19:11;;;;;;;7.72;6.35;;;;;;;21.22;62.81;100740.75;5075508;28;20052;-45
2022/07/25 05:21:37;;;;;;;8.18;6.35;;;;;;;21.28;62.10;100745.38;5077423;28;20055;-46
2022/07/25 05:24:03;;;;;;;10.15;6.38;;;;;;;21.30;61.99;100742.47;5081037;28;20025;-45
2022/07/25 05:26:28;;;;;;;6.93;6.22;;;;;;;21.35;61.95;100735.50;5072017;28;20033;-49
2022/07/25 05:28:54;;;;;;;10.30;6.82;;;;;;;21.38;62.12;100736.97;5079249;28;20016;-47
2022/07/25 05:31:19;;;;;;;7.45;6.35;;;;;;;21.41;62.11;100740.13;5080320;28;20145;-46
2022/07/25 05:33:44;;;;;;;8.77;6.97;;;;;;;21.45;62.42;100737.91;5084381;28;20016;-45
2022/07/25 05:36:10;;;;;;;8.80;6.40;;;;;;;21.48;62.22;100742.09;5076536;28;20379;-48
2022/07/25 05:38:35;;;;;;;9.93;6.40;;;;;;;21.51;62.43;100749.81;5079179;28;20298;-49
2022/07/25 05:41:01;;;;;;;9.63;7.15;;;;;;;21.57;61.97;100754.47;5084439;28;20031;-46
2022/07/25 05:43:26;;;;;;;7.77;5.90;;;;;;;21.62;62.21;100747.44;5085782;28;20028;-46
2022/07/25 05:45:51;;;;;;;8.80;6.40;;;;;;;21.68;62.27;100750.41;5090056;28;20282;-47
2022/07/25 05:48:17;;;;;;;9.32;6.78;;;;;;;21.72;62.09;100739.00;5080042;28;20032;-45
2022/07/25 05:50:42;;;;;;;9.73;6.45;;;;;;;21.77;62.45;100738.44;5091782;28;20044;-46
2022/07/25 05:53:07;;;;;;;10.98;7.00;;;;;;;21.78;61.46;100740.97;5087387;28;20103;-46
2022/07/25 05:55:33;;;;;;;7.18;6.47;;;;;;;21.81;62.60;100756.75;5073321;28;20115;-46
2022/07/25 05:57:58;;;;;;;8.63;6.50;;;;;;;21.84;62.07;100766.38;5082974;28;20032;-47
2022/07/25 06:00:24;;;;;;;10.33;6.20;;;;;;;21.89;61.98;100761.22;5078365;28;20036;-45
2022/07/25 06:02:50;;;;;;;8.73;6.88;;;;;;;21.88;61.53;100766.81;5077540;28;20289;-45
2022/07/25 06:05:15;;;;;;;9.05;6.60;;;;;;;21.92;61.14;100768.94;5081739;28;20025;-46
2022/07/25 06:07:41;;;;;;;9.30;6.70;;;;;;;21.93;60.88;100773.31;5073763;28;20025;-46
2022/07/25 06:10:07;;;;;;;8.65;7.03;;;;;;;21.95;60.86;100771.25;5076560;28;20024;-46
2022/07/25 06:12:32;;;;;;;7.55;6.57;;;;;;;21.92;60.05;100771.66;5079762;28;20025;-49
2022/07/25 06:14:58;;;;;;;10.65;6.63;;;;;;;21.91;60.36;100771.84;5078730;28;20051;-48
2022/07/25 06:17:24;;;;;;;11.05;6.45;;;;;;;21.92;61.36;100776.22;5076832;28;20036;-47
2022/07/25 06:19:49;;;;;;;7.88;6.57;;;;;;;21.94;60.88;100771.44;5074890;28;20040;-48
2022/07/25 06:22:14;;;;;;;7.10;6.40;;;;;;;21.94;60.41;100772.28;5080488;28;20395;-47
2022/07/25 06:24:40;;;;;;;8.00;5.80;;;;;;;21.94;61.10;100774.16;5077603;28;20290;-47
2022/07/25 06:27:06;;;;;;;6.05;5.45;;;;;;;21.94;60.19;100772.28;5085160;28;20068;-47
2022/07/25 06:29:31;;;;;;;6.90;6.03;;;;;;;21.98;59.99;100779.00;5082184;28;20381;-47
2022/07/25 06:31:56;;;;;;;10.47;5.80;;;;;;;22.03;60.41;100782.97;5072823;28;20033;-47
2022/07/25 06:34:22;;;;;;;6.55;5.45;;;;;;;22.03;60.52;100786.50;5071893;28;20661;-46
2022/07/25 06:36:47;;;;;;;7.30;6.53;;;;;;;22.02;60.34;100781.31;5068951;28;20033;-46
2022/07/25 06:39:12;;;;;;;6.90;6.18;;;;;;;21.95;60.59;100773.97;5080132;28;20025;-48
2022/07/25 06:41:38;;;;;;;9.80;6.27;;;;;;;21.97;60.40;100779.19;5079101;28;20049;-45
2022/07/25 06:44:03;;;;;;;8.65;6.35;;;;;;;21.96;60.36;100775.63;5077085;28;20703;-46
2022/07/25 06:46:31;;;;;;;7.45;6.30;;;;;;;21.96;60.82;100783.72;5079935;28;20063;-49
2022/07/25 06:48:56;;;;;;;6.30;5.70;;;;;;;22.04;60.33;100781.94;5080216;28;20018;-46
2022/07/25 06:51:22;;;;;;;9.75;6.32;;;;;;;22.09;60.80;100790.31;5076707;28;20059;-48
2022/07/25 06:53:48;;;;;;;10.95;6.50;;;;;;;22.12;61.15;100784.50;5081081;28;20028;-47
2022/07/25 06:56:13;;;;;;;7.13;5.55;;;;;;;22.17;60.96;100774.75;5082230;28;20058;-49
2022/07/25 06:58:38;;;;;;;7.57;5.57;;;;;;;22.24;61.14;100784.81;5088450;28;20032;-46
2022/07/25 07:01:04;;;;;;;7.20;5.60;;;;;;;22.26;61.60;100771.91;5076997;28;20649;-47
2022/07/25 07:03:29;;;;;;;5.75;4.90;;;;;;;22.26;62.04;100778.16;5080646;28;20077;-45
2022/07/25 07:05:54;;;;;;;6.85;4.97;;;;;;;22.29;62.05;100783.22;5075211;28;20167;-48
2022/07/25 07:08:20;;;;;;;9.55;4.90;;;;;;;22.32;60.68;100776.59;5070790;28;20043;-46
2022/07/25 07:10:45;;;;;;;7.97;4.90;;;;;;;22.34;60.37;100772.63;5065138;28;20033;-46
2022/07/25 07:13:12;;;;;;;7.90;4.90;;;;;;;22.38;60.91;100772.25;5075476;28;20068;-48
2022/07/25 07:15:38;;;;;;;8.07;4.30;;;;;;;22.42;61.49;100779.78;5084029;28;20025;-48
2022/07/25 07:18:05;;;;;;;7.40;3.88;;;;;;;22.48;61.20;100784.41;5079877;28;20086;-45
2022/07/25 07:20:30;;;;;;;6.70;4.05;;;;;;;22.56;61.00;100779.88;5084149;28;20035;-46
2022/07/25 07:22:56;;;;;;;8.40;3.70;;;;;;;22.61;60.47;100771.97;5083306;28;20021;-45
2022/07/25 07:25:22;;;;;;;8.63;3.88;;;;;;;22.71;61.45;100767.88;5082576;28;20143;-46
2022/07/25 07:27:48;;;;;;;10.73;3.75;;;;;;;22.83;61.59;100775.44;5084700;28;20084;-47
2022/07/25 07:30:13;;;;;;;5.70;3.50;;;;;;;22.79;60.56;100774.19;5087058;28;20024;-48
2022/07/25 07:32:40;;;;;;;8.63;3.30;;;;;;;22.87;60.44;100776.72;5092126;28;20066;-47
2022/07/25 07:35:05;;;;;;;7.20;3.08;;;;;;;22.90;60.61;100782.56;5083659;28;20021;-45
2022/07/25 07:37:31;;;;;;;9.23;3.42;;;;;;;22.96;60.27;100780.09;5090675;28;20031;-49
2022/07/25 07:39:56;;;;;;;9.20;3.35;;;;;;;22.99;60.59;100782.41;5086219;28;20028;-49
2022/07/25 07:42:21;;;;;;;4.78;2.60;;;;;;;23.04;61.10;100778.03;5076572;28;20036;-50
2022/07/25 07:44:46;;;;;;;6.33;2.90;;;;;;;23.04;61.66;100777.22;5069733;28;20032;-49
2022/07/25 07:47:12;;;;;;;5.80;2.97;;;;;;;23.08;62.59;100784.78;5074753;28;20286;-49
2022/07/25 07:49:37;;;;;;;8.75;2.40;;;;;;;23.23;61.85;100781.06;5073990;28;20286;-48
2022/07/25 07:52:03;;;;;;;6.60;2.70;;;;;;;23.51;62.07;100777.41;5069884;28;20041;-48
2022/07/25 07:57:12;;;;;;;5.43;1.90;;;;;;;23.98;60.55;100772.91;5071037;28;20481;-51
2022/07/25 07:59:37;;;;;;;3.63;1.80;;;;;;;24.11;59.97;100791.91;5071184;28;20025;-50
2022/07/25 08:02:02;;;;;;;6.47;2.17;;;;;;;24.15;60.25;100789.63;5063150;28;20028;-49
2022/07/25 08:04:28;;;;;;;5.15;1.60;;;;;;;24.22;60.50;100785.03;5051004;28;21557;-49
2022/07/25 08:06:53;;;;;;;6.43;2.03;;;;;;;24.27;59.00;100776.28;5070983;28;20024;-47
2022/07/25 08:09:18;;;;;;;5.95;2.00;;;;;;;24.49;58.32;100791.25;5075430;28;20577;-46
2022/07/25 08:11:44;;;;;;;3.60;1.90;;;;;;;24.65;57.70;100790.03;5071266;28;20070;-48
2022/07/25 08:14:09;;;;;;;8.67;2.20;;;;;;;24.79;58.72;100798.97;5075286;28;20050;-47
2022/07/25 08:16:34;;;;;;;4.75;1.90;;;;;;;24.97;58.25;100792.88;5066993;28;20306;-48
2022/07/25 08:19:00;;;;;;;4.88;1.90;;;;;;;25.06;58.65;100788.00;5074206;28;20059;-51
2022/07/25 08:21:25;;;;;;;4.55;1.65;;;;;;;25.28;57.04;100788.56;5056926;28;20025;-47
2022/07/25 08:23:50;;;;;;;5.30;1.75;;;;;;;25.47;56.57;100784.09;5076002;28;20024;-49
2022/07/25 08:26:16;;;;;;;7.30;1.87;;;;;;;25.66;56.17;100785.88;5051281;28;20029;-48
2022/07/25 08:28:42;;;;;;;6.25;1.67;;;;;;;25.65;56.53;100796.97;5075610;28;20289;-49
2022/07/25 08:31:07;;;;;;;4.90;1.70;;;;;;;25.80;55.79;100793.94;5054738;28;20062;-47
2022/07/25 08:33:32;;;;;;;5.07;1.40;;;;;;;25.82;54.73;100794.56;5061322;28;20064;-47
2022/07/25 08:35:58;;;;;;;3.72;1.50;;;;;;;26.11;55.39;100793.09;5073877;28;20031;-47
2022/07/25 08:38:25;;;;;;;4.30;1.52;;;;;;;26.23;54.00;100801.41;5073310;28;20029;-47
2022/07/25 08:40:52;;;;;;;8.55;1.65;;;;;;;26.64;54.27;100796.44;5059060;28;20024;-49
2022/07/25 08:43:18;;;;;;;4.90;1.58;;;;;;;26.70;53.71;100799.09;5072745;28;20032;-47
2022/07/25 08:45:51;;;;;;;5.65;1.50;;;;;;;26.85;52.67;100797.91;5072337;28;20452;-48
2022/07/25 08:48:19;;;;;;;5.18;1.58;;;;;;;27.01;52.83;100802.72;5070954;28;20028;-47
2022/07/25 08:50:46;;;;;;;8.00;1.90;;;;;;;27.24;52.97;100791.09;5070283;28;20047;-48
2022/07/25 08:53:12;;;;;;;6.68;1.80;;;;;;;27.35;51.73;100803.19;5068314;28;20114;-48
2022/07/25 08:55:38;;;;;;;4.40;1.55;;;;;;;27.35;51.33;100794.19;5069989;28;20021;-47
2022/07/25 08:58:03;;;;;;;8.63;1.90;;;;;;;27.50;50.96;100794.59;5068648;28;20032;-50
2022/07/25 09:00:29;;;;;;;9.50;2.45;;;;;;;27.55;50.38;100797.44;5070554;28;20064;-48
2022/07/25 09:02:55;;;;;;;4.68;1.65;;;;;;;27.50;50.03;100802.78;5071896;28;20393;-51
2022/07/25 09:05:22;;;;;;;8.82;1.70;;;;;;;27.64;50.52;100809.69;5062377;28;20028;-48
2022/07/25 09:07:48;;;;;;;5.90;1.65;;;;;;;27.82;49.82;100803.34;5075695;28;20028;-46
2022/07/25 09:10:27;;;;;;;7.07;1.80;;;;;;;28.04;50.28;100800.91;5074262;28;20051;-45
2022/07/25 09:12:56;;;;;;;6.13;2.00;;;;;;;28.31;49.55;100802.38;5071259;28;20033;-49
2022/07/25 09:15:34;;;;;;;4.38;1.48;;;;;;;28.70;49.68;100800.03;5073720;28;20029;-48
2022/07/25 09:18:03;;;;;;;6.93;1.70;;;;;;;28.96;48.95;100801.41;5073615;28;20345;-48
2022/07/25 09:20:47;;;;;;;5.45;1.67;;;;;;;29.01;47.72;100809.75;5072156;28;20031;-48
2022/07/25 09:23:25;;;;;;;4.57;1.30;;;;;;;28.89;46.41;100806.19;5070646;28;20276;-48
2022/07/25 09:25:50;;;;;;;7.00;1.63;;;;;;;28.92;46.93;100813.91;5065290;28;20025;-46
2022/07/25 09:28:17;;;;;;;7.17;1.70;;;;;;;29.10;45.88;100815.66;5060690;28;20029;-48
2022/07/25 09:30:58;;;;;;;6.30;1.77;;;;;;;29.23;46.56;100818.16;5060573;28;20279;-47
2022/07/25 09:33:26;;;;;;;4.35;1.60;;;;;;;29.11;44.24;100822.78;5072562;28;20013;-51
2022/07/25 09:35:53;;;;;;;6.53;1.90;;;;;;;29.11;43.02;100830.97;5097311;28;20023;-50
2022/07/25 09:38:19;;;;;;;5.63;1.90;;;;;;;29.30;42.75;100837.97;5097036;28;20016;-51
2022/07/25 09:41:00;;;;;;;4.47;1.80;;;;;;;29.47;44.41;100843.50;5096958;28;20024;-52
2022/07/25 09:43:39;;;;;;;9.30;1.67;;;;;;;29.76;44.27;100839.94;5090579;28;20023;-54
2022/07/25 09:46:06;;;;;;;4.00;1.67;;;;;;;29.73;43.17;100844.00;5082542;28;20036;-53
2022/07/25 09:48:33;;;;;;;6.80;1.90;;;;;;;29.85;44.31;100838.50;5092196;28;20047;-50
2022/07/25 09:50:59;;;;;;;5.38;1.73;;;;;;;29.85;43.34;100835.75;5077072;28;20013;-50
2022/07/25 09:53:25;;;;;;;6.05;2.22;;;;;;;30.08;42.21;100832.06;5095607;28;20090;-50
2022/07/25 09:55:52;;;;;;;4.50;2.05;;;;;;;30.30;41.99;100845.03;5095737;28;20093;-52
2022/07/25 09:58:18;;;;;;;7.57;2.28;;;;;;;30.43;41.39;100840.06;5093779;28;20040;-52
2022/07/25 10:00:44;;;;;;;3.35;1.75;;;;;;;30.54;41.53;100829.25;5098126;28;20027;-49
2022/07/25 10:03:32;;;;;;;9.18;2.15;;;;;;;30.82;41.72;100841.97;5097892;28;20047;-50
2022/07/25 10:06:20;;;;;;;5.53;1.52;;;;;;;30.68;41.79;100840.66;5099419;28;20084;-49
2022/07/25 10:08:47;;;;;;;4.47;1.48;;;;;;;30.89;39.99;100839.06;5098134;28;20021;-50
2022/07/25 10:11:18;;;;;;;5.13;1.77;;;;;;;31.06;39.73;100852.75;5099086;28;20027;-51
2022/07/25 10:13:44;;;;;;;4.18;1.90;;;;;;;31.04;39.46;100843.94;5086751;28;20049;-50
2022/07/25 10:16:23;;;;;;;3.30;1.60;;;;;;;31.08;39.29;100853.34;5086727;28;20378;-50
2022/07/25 10:18:54;;;;;;;5.05;1.60;;;;;;;30.98;39.36;100843.88;5064586;28;20756;-49
2022/07/25 10:21:21;;;;;;;7.07;1.67;;;;;;;31.23;38.82;100839.81;5074201;28;20028;-51
2022/07/25 10:24:04;;;;;;;4.75;1.67;;;;;;;31.42;39.65;100842.22;5073382;28;20024;-49
2022/07/25 10:26:30;;;;;;;5.78;1.90;;;;;;;31.58;39.04;100840.50;5068596;28;20115;-49
2022/07/25 10:28:57;;;;;;;4.15;1.80;;;;;;;31.87;38.31;100835.56;5071920;28;20102;-48
2022/07/25 10:31:25;;;;;;;5.18;1.65;;;;;;;31.94;38.19;100832.63;5071478;28;20525;-47
2022/07/25 10:33:54;;;;;;;7.22;1.90;;;;;;;31.69;37.56;100836.75;5070812;28;20044;-47
2022/07/25 10:36:19;;;;;;;;;;;;;;;32.18;37.92;100844.13;5071923;28;20032;-46
2022/07/25 10:38:45;;;;;;;4.43;1.90;;;;;;;31.86;36.22;100847.63;5073386;28;19912;-48
2022/07/25 10:41:12;;;;;;;2.30;1.42;;;;;;;31.88;36.57;100846.31;5073414;28;20442;-46
2022/07/25 10:43:39;;;;;;;6.13;1.80;;;;;;;31.80;35.77;100848.69;5073496;28;20016;-46
2022/07/25 10:46:18;;;;;;;3.75;1.50;;;;;;;31.84;37.26;100850.66;5071167;28;20020;-49
2022/07/25 10:48:44;;;;;;;5.00;1.70;;;;;;;31.61;35.91;100856.44;5072296;28;20529;-46
2022/07/25 10:51:12;;;;;;;6.80;1.90;;;;;;;31.70;36.79;100852.97;5073803;28;20028;-46
2022/07/25 10:53:44;;;;;;;9.05;1.95;;;;;;;31.99;36.68;100854.63;5068933;28;20516;-46
2022/07/25 10:56:22;;;;;;;5.60;1.73;;;;;;;31.90;36.89;100857.84;5073168;28;20055;-49
2022/07/25 10:58:51;;;;;;;5.30;1.70;;;;;;;31.92;36.34;100868.56;5054566;28;20024;-53
2022/07/25 11:01:22;;;;;;;4.88;1.85;;;;;;;31.66;36.66;100873.81;5072472;28;20028;-49
2022/07/25 11:03:49;;;;;;;3.45;2.00;;;;;;;31.51;36.66;100873.63;5069369;28;20028;-47
2022/07/25 11:06:16;;;;;;;3.22;1.80;;;;;;;31.53;37.95;100872.31;5071034;28;20436;-47
2022/07/25 11:08:43;;;;;;;4.55;1.80;;;;;;;31.35;36.81;100872.59;5070755;28;20381;-46
2022/07/25 11:11:09;;;;;;;5.07;1.70;;;;;;;31.41;36.11;100865.25;5069691;28;20104;-48
2022/07/25 11:13:36;;;;;;;4.78;2.05;;;;;;;31.38;37.52;100868.50;5079203;28;20021;-49
2022/07/25 11:16:01;;;;;;;5.57;2.30;;;;;;;31.11;35.98;100866.53;5066278;28;20086;-49
2022/07/25 11:18:35;;;;;;;7.90;2.30;;;;;;;31.03;36.77;100866.97;5065281;28;20032;-53
2022/07/25 11:21:01;;;;;;;5.43;2.25;;;;;;;30.81;37.82;100873.25;5073779;28;20899;-46
2022/07/25 11:23:27;;;;;;;6.30;2.20;;;;;;;30.62;37.55;100878.16;5074307;28;20024;-46